sensor_id;sensor_type;location;lat;lon;timestamp;temperature;humidity
15274;DHT22;7738;49.532;11.156;2023-02-01T00:00:00;2.30;99.90
15274;DHT22;7738;49.532;11.156;2023-02-01T00:02:31;2.30;99.90
15274;DHT22;7738;49.532;11.156;2023-02-01T00:05:03;2.40;99.90
15274;DHT22;7738;49.532;11.156;2023-02-01T00:07:33;2.30;99.90
15274;DHT22;7738;49.532;11.156;2023-02-01T00:10:05;2.20;99.90
15274;DHT22;7738;49.532;11.156;2023-02-01T00:12:38;2.20;99.90
15274;DHT22;7738;49.532;11.156;2023-02-01T00:15:08;2.20;99.90
15274;DHT22;7738;49.532;11.156;2023-02-01T00:17:38;2.20;99.90
15274;DHT22;7738;49.532;11.156;2023-02-01T00:20:10;2.10;99.90
15274;DHT22;7738;49.532;11.156;2023-02-01T00:22:41;2.10;99.90
15274;DHT22;7738;49.532;11.156;2023-02-01T00:25:11;2.10;99.90
15274;DHT22;7738;49.532;11.156;2023-02-01T00:27:48;2.00;99.90
15274;DHT22;7738;49.532;11.156;2023-02-01T00:30:18;2.10;99.90
15274;DHT22;7738;49.532;11.156;2023-02-01T00:32:49;2.10;99.90
15274;DHT22;7738;49.532;11.156;2023-02-01T00:35:19;2.10;99.90
15274;DHT22;7738;49.532;11.156;2023-02-01T00:37:49;2.20;99.90
15274;DHT22;7738;49.532;11.156;2023-02-01T00:40:19;2.20;99.90
15274;DHT22;7738;49.532;11.156;2023-02-01T00:42:52;2.20;99.90
15274;DHT22;7738;49.532;11.156;2023-02-01T00:45:24;2.30;99.90
15274;DHT22;7738;49.532;11.156;2023-02-01T00:47:54;2.30;99.90
15274;DHT22;7738;49.532;11.156;2023-02-01T00:50:24;2.20;99.90
15274;DHT22;7738;49.532;11.156;2023-02-01T00:52:54;2.30;99.90
15274;DHT22;7738;49.532;11.156;2023-02-01T00:55:24;2.30;99.90
15274;DHT22;7738;49.532;11.156;2023-02-01T00:57:56;2.20;99.90
15274;DHT22;7738;49.532;11.156;2023-02-01T01:00:26;2.30;99.90
15274;DHT22;7738;49.532;11.156;2023-02-01T01:02:56;2.30;99.90
15274;DHT22;7738;49.532;11.156;2023-02-01T01:05:26;2.20;99.90
15274;DHT22;7738;49.532;11.156;2023-02-01T01:07:57;0.00;99.90
15274;DHT22;7738;49.532;11.156;2023-02-01T01:10:27;2.30;99.90
15274;DHT22;7738;49.532;11.156;2023-02-01T01:12:59;2.40;99.90
15274;DHT22;7738;49.532;11.156;2023-02-01T01:15:29;2.30;99.90
15274;DHT22;7738;49.532;11.156;2023-02-01T01:17:59;2.40;99.90
15274;DHT22;7738;49.532;11.156;2023-02-01T01:20:30;2.40;99.90
15274;DHT22;7738;49.532;11.156;2023-02-01T01:23:00;2.40;99.90
15274;DHT22;7738;49.532;11.156;2023-02-01T01:25:30;2.40;99.90
15274;DHT22;7738;49.532;11.156;2023-02-01T01:28:03;2.40;99.90
15274;DHT22;7738;49.532;11.156;2023-02-01T01:30:34;2.40;99.90
15274;DHT22;7738;49.532;11.156;2023-02-01T01:33:04;2.40;99.90
15274;DHT22;7738;49.532;11.156;2023-02-01T01:35:34;2.40;99.90
15274;DHT22;7738;49.532;11.156;2023-02-01T01:38:04;2.40;99.90
15274;DHT22;7738;49.532;11.156;2023-02-01T01:40:34;2.40;99.90
15274;DHT22;7738;49.532;11.156;2023-02-01T01:43:13;2.40;99.90
15274;DHT22;7738;49.532;11.156;2023-02-01T01:45:43;2.30;99.90
15274;DHT22;7738;49.532;11.156;2023-02-01T01:48:18;2.30;99.90
15274;DHT22;7738;49.532;11.156;2023-02-01T01:50:54;2.30;99.90
15274;DHT22;7738;49.532;11.156;2023-02-01T01:53:30;2.30;99.90
15274;DHT22;7738;49.532;11.156;2023-02-01T01:56:01;2.30;99.90
15274;DHT22;7738;49.532;11.156;2023-02-01T01:58:34;2.30;99.90
15274;DHT22;7738;49.532;11.156;2023-02-01T02:01:04;2.30;99.90
15274;DHT22;7738;49.532;11.156;2023-02-01T02:03:37;2.30;99.90
15274;DHT22;7738;49.532;11.156;2023-02-01T02:06:15;2.20;99.90
15274;DHT22;7738;49.532;11.156;2023-02-01T02:08:48;2.30;99.90
15274;DHT22;7738;49.532;11.156;2023-02-01T02:11:19;2.30;99.90
15274;DHT22;7738;49.532;11.156;2023-02-01T02:13:54;2.20;99.90
15274;DHT22;7738;49.532;11.156;2023-02-01T02:16:38;2.20;99.90
15274;DHT22;7738;49.532;11.156;2023-02-01T02:32:09;2.40;99.90
15274;DHT22;7738;49.532;11.156;2023-02-01T02:34:53;2.40;99.90
15274;DHT22;7738;49.532;11.156;2023-02-01T02:37:31;2.30;99.90
15274;DHT22;7738;49.532;11.156;2023-02-01T02:40:07;2.30;99.90
15274;DHT22;7738;49.532;11.156;2023-02-01T02:42:43;2.30;99.90
15274;DHT22;7738;49.532;11.156;2023-02-01T02:45:37;2.40;99.90
15274;DHT22;7738;49.532;11.156;2023-02-01T02:48:26;2.40;99.90
15274;DHT22;7738;49.532;11.156;2023-02-01T02:51:04;2.40;99.90
15274;DHT22;7738;49.532;11.156;2023-02-01T02:53:52;2.40;99.90
15274;DHT22;7738;49.532;11.156;2023-02-01T02:56:37;2.40;99.90
15274;DHT22;7738;49.532;11.156;2023-02-01T02:59:21;2.50;99.90
15274;DHT22;7738;49.532;11.156;2023-02-01T03:02:07;2.50;99.90
15274;DHT22;7738;49.532;11.156;2023-02-01T03:04:52;2.50;99.90
15274;DHT22;7738;49.532;11.156;2023-02-01T03:07:56;2.50;99.90
15274;DHT22;7738;49.532;11.156;2023-02-01T03:10:35;2.50;99.90
15274;DHT22;7738;49.532;11.156;2023-02-01T03:13:12;2.40;99.90
15274;DHT22;7738;49.532;11.156;2023-02-01T03:15:48;2.40;99.90
15274;DHT22;7738;49.532;11.156;2023-02-01T03:18:26;2.40;99.90
15274;DHT22;7738;49.532;11.156;2023-02-01T03:20:59;2.40;99.90
15274;DHT22;7738;49.532;11.156;2023-02-01T03:23:37;2.40;99.90
15274;DHT22;7738;49.532;11.156;2023-02-01T03:26:11;2.40;99.90
15274;DHT22;7738;49.532;11.156;2023-02-01T03:28:49;2.40;99.90
15274;DHT22;7738;49.532;11.156;2023-02-01T03:31:23;2.50;99.90
15274;DHT22;7738;49.532;11.156;2023-02-01T03:33:53;2.50;99.90
15274;DHT22;7738;49.532;11.156;2023-02-01T03:36:28;2.50;99.90
15274;DHT22;7738;49.532;11.156;2023-02-01T03:39:05;2.50;99.90
15274;DHT22;7738;49.532;11.156;2023-02-01T03:41:40;2.40;99.90
15274;DHT22;7738;49.532;11.156;2023-02-01T03:44:13;2.40;99.90
15274;DHT22;7738;49.532;11.156;2023-02-01T03:46:48;2.40;99.90
15274;DHT22;7738;49.532;11.156;2023-02-01T03:49:20;2.40;99.90
15274;DHT22;7738;49.532;11.156;2023-02-01T03:51:53;2.40;99.90
15274;DHT22;7738;49.532;11.156;2023-02-01T03:54:28;2.30;99.90
15274;DHT22;7738;49.532;11.156;2023-02-01T03:57:01;2.40;99.90
15274;DHT22;7738;49.532;11.156;2023-02-01T03:59:33;2.40;99.90
15274;DHT22;7738;49.532;11.156;2023-02-01T04:02:03;2.40;99.90
15274;DHT22;7738;49.532;11.156;2023-02-01T04:04:34;2.40;99.90
15274;DHT22;7738;49.532;11.156;2023-02-01T04:09:38;2.40;99.90
15274;DHT22;7738;49.532;11.156;2023-02-01T04:12:08;2.30;99.90
15274;DHT22;7738;49.532;11.156;2023-02-01T04:14:38;2.40;99.90
15274;DHT22;7738;49.532;11.156;2023-02-01T04:24:41;2.50;99.90
15274;DHT22;7738;49.532;11.156;2023-02-01T04:27:11;2.40;99.90
15274;DHT22;7738;49.532;11.156;2023-02-01T04:29:42;2.60;99.90
15274;DHT22;7738;49.532;11.156;2023-02-01T04:34:43;1.60;99.90
15274;DHT22;7738;49.532;11.156;2023-02-01T04:37:13;2.40;99.90
15274;DHT22;7738;49.532;11.156;2023-02-01T04:39:45;2.60;99.90
15274;DHT22;7738;49.532;11.156;2023-02-01T04:49:47;2.40;99.90
15274;DHT22;7738;49.532;11.156;2023-02-01T04:54:49;2.30;99.90
15274;DHT22;7738;49.532;11.156;2023-02-01T04:57:23;2.10;99.90
15274;DHT22;7738;49.532;11.156;2023-02-01T04:59:53;2.30;99.90
15274;DHT22;7738;49.532;11.156;2023-02-01T05:02:23;2.30;99.90
15274;DHT22;7738;49.532;11.156;2023-02-01T05:04:53;2.30;99.90
15274;DHT22;7738;49.532;11.156;2023-02-01T05:07:23;2.00;99.90
15274;DHT22;7738;49.532;11.156;2023-02-01T05:09:56;2.00;99.90
15274;DHT22;7738;49.532;11.156;2023-02-01T05:15:09;2.10;99.90
15274;DHT22;7738;49.532;11.156;2023-02-01T05:20:10;2.10;99.90
15274;DHT22;7738;49.532;11.156;2023-02-01T05:25:14;2.00;99.90
15274;DHT22;7738;49.532;11.156;2023-02-01T05:30:15;2.10;99.90
15274;DHT22;7738;49.532;11.156;2023-02-01T05:35:15;2.10;99.90
15274;DHT22;7738;49.532;11.156;2023-02-01T05:37:45;2.10;99.90
15274;DHT22;7738;49.532;11.156;2023-02-01T05:40:18;2.10;99.90
15274;DHT22;7738;49.532;11.156;2023-02-01T05:52:56;1.90;99.90
15274;DHT22;7738;49.532;11.156;2023-02-01T05:55:28;1.90;99.90
15274;DHT22;7738;49.532;11.156;2023-02-01T05:57:58;1.80;99.90
15274;DHT22;7738;49.532;11.156;2023-02-01T06:05:29;1.80;99.90
15274;DHT22;7738;49.532;11.156;2023-02-01T06:07:59;1.70;99.90
15274;DHT22;7738;49.532;11.156;2023-02-01T06:10:32;2.10;99.90
15274;DHT22;7738;49.532;11.156;2023-02-01T06:13:02;1.90;99.90
15274;DHT22;7738;49.532;11.156;2023-02-01T06:15:32;1.80;99.90
15274;DHT22;7738;49.532;11.156;2023-02-01T06:23:05;1.70;99.90
15274;DHT22;7738;49.532;11.156;2023-02-01T06:25:37;1.80;99.90
15274;DHT22;7738;49.532;11.156;2023-02-01T06:33:13;1.60;99.90
15274;DHT22;7738;49.532;11.156;2023-02-01T06:38:14;1.60;99.90
15274;DHT22;7738;49.532;11.156;2023-02-01T06:40:55;1.60;99.90
15274;DHT22;7738;49.532;11.156;2023-02-01T06:43:26;1.60;99.90
15274;DHT22;7738;49.532;11.156;2023-02-01T06:45:59;1.60;99.90
15274;DHT22;7738;49.532;11.156;2023-02-01T06:53:30;1.70;99.90
15274;DHT22;7738;49.532;11.156;2023-02-01T06:56:04;1.50;99.90
15274;DHT22;7738;49.532;11.156;2023-02-01T07:01:06;1.60;99.90
15274;DHT22;7738;49.532;11.156;2023-02-01T07:03:37;1.60;99.90
15274;DHT22;7738;49.532;11.156;2023-02-01T07:06:08;1.60;99.90
15274;DHT22;7738;49.532;11.156;2023-02-01T07:11:12;1.70;99.90
15274;DHT22;7738;49.532;11.156;2023-02-01T07:13:43;1.70;99.90
15274;DHT22;7738;49.532;11.156;2023-02-01T07:16:15;1.60;99.90
15274;DHT22;7738;49.532;11.156;2023-02-01T07:18:46;1.50;99.90
15274;DHT22;7738;49.532;11.156;2023-02-01T07:23:46;1.60;99.90
15274;DHT22;7738;49.532;11.156;2023-02-01T07:26:19;1.70;99.90
15274;DHT22;7738;49.532;11.156;2023-02-01T07:28:49;1.70;99.90
15274;DHT22;7738;49.532;11.156;2023-02-01T07:31:19;1.70;99.90
15274;DHT22;7738;49.532;11.156;2023-02-01T07:33:50;1.80;99.90
15274;DHT22;7738;49.532;11.156;2023-02-01T07:36:22;1.80;99.90
15274;DHT22;7738;49.532;11.156;2023-02-01T07:38:52;1.80;99.90
15274;DHT22;7738;49.532;11.156;2023-02-01T07:41:25;1.80;99.90
15274;DHT22;7738;49.532;11.156;2023-02-01T07:43:55;1.80;99.90
15274;DHT22;7738;49.532;11.156;2023-02-01T07:46:26;1.80;99.90
15274;DHT22;7738;49.532;11.156;2023-02-01T07:48:56;1.90;99.90
15274;DHT22;7738;49.532;11.156;2023-02-01T07:51:26;2.10;99.90
15274;DHT22;7738;49.532;11.156;2023-02-01T07:53:56;1.80;99.90
15274;DHT22;7738;49.532;11.156;2023-02-01T07:56:29;1.90;99.90
15274;DHT22;7738;49.532;11.156;2023-02-01T07:58:59;2.00;99.90
15274;DHT22;7738;49.532;11.156;2023-02-01T08:01:29;2.00;99.90
15274;DHT22;7738;49.532;11.156;2023-02-01T08:04:01;2.10;99.90
15274;DHT22;7738;49.532;11.156;2023-02-01T08:06:33;2.10;99.90
15274;DHT22;7738;49.532;11.156;2023-02-01T08:09:04;2.30;99.90
15274;DHT22;7738;49.532;11.156;2023-02-01T08:11:37;2.60;99.90
15274;DHT22;7738;49.532;11.156;2023-02-01T08:14:07;1.60;99.90
15274;DHT22;7738;49.532;11.156;2023-02-01T08:19:07;2.30;99.90
15274;DHT22;7738;49.532;11.156;2023-02-01T08:21:37;2.30;99.90
15274;DHT22;7738;49.532;11.156;2023-02-01T08:24:09;2.30;99.90
15274;DHT22;7738;49.532;11.156;2023-02-01T08:26:42;2.40;99.90
15274;DHT22;7738;49.532;11.156;2023-02-01T08:29:12;2.30;99.90
15274;DHT22;7738;49.532;11.156;2023-02-01T08:34:13;2.30;99.90
15274;DHT22;7738;49.532;11.156;2023-02-01T08:36:43;2.40;99.90
15274;DHT22;7738;49.532;11.156;2023-02-01T08:39:14;2.40;99.90
15274;DHT22;7738;49.532;11.156;2023-02-01T08:41:47;2.50;99.90
15274;DHT22;7738;49.532;11.156;2023-02-01T08:44:37;2.50;99.90
15274;DHT22;7738;49.532;11.156;2023-02-01T08:47:07;2.60;99.90
15274;DHT22;7738;49.532;11.156;2023-02-01T08:49:38;2.60;99.90
15274;DHT22;7738;49.532;11.156;2023-02-01T08:52:08;2.70;99.90
15274;DHT22;7738;49.532;11.156;2023-02-01T08:54:42;2.60;99.90
15274;DHT22;7738;49.532;11.156;2023-02-01T08:57:15;2.70;99.90
15274;DHT22;7738;49.532;11.156;2023-02-01T08:59:45;2.70;99.90
15274;DHT22;7738;49.532;11.156;2023-02-01T09:02:16;2.80;99.90
15274;DHT22;7738;49.532;11.156;2023-02-01T09:04:46;2.90;99.90
15274;DHT22;7738;49.532;11.156;2023-02-01T09:07:16;3.10;99.90
15274;DHT22;7738;49.532;11.156;2023-02-01T09:09:46;3.20;99.90
15274;DHT22;7738;49.532;11.156;2023-02-01T09:12:19;3.00;99.90
15274;DHT22;7738;49.532;11.156;2023-02-01T09:14:49;3.00;99.90
15274;DHT22;7738;49.532;11.156;2023-02-01T09:17:19;3.00;99.90
15274;DHT22;7738;49.532;11.156;2023-02-01T09:19:49;3.10;99.90
15274;DHT22;7738;49.532;11.156;2023-02-01T09:22:19;3.00;99.90
15274;DHT22;7738;49.532;11.156;2023-02-01T09:24:49;3.00;99.90
15274;DHT22;7738;49.532;11.156;2023-02-01T09:27:23;3.00;99.90
15274;DHT22;7738;49.532;11.156;2023-02-01T09:29:53;3.00;99.90
15274;DHT22;7738;49.532;11.156;2023-02-01T09:32:24;3.00;99.90
15274;DHT22;7738;49.532;11.156;2023-02-01T09:34:54;3.00;99.90
15274;DHT22;7738;49.532;11.156;2023-02-01T09:37:24;3.20;99.90
15274;DHT22;7738;49.532;11.156;2023-02-01T09:42:43;3.00;99.90
15274;DHT22;7738;49.532;11.156;2023-02-01T09:45:22;3.00;99.90
15274;DHT22;7738;49.532;11.156;2023-02-01T09:47:55;3.00;99.90
15274;DHT22;7738;49.532;11.156;2023-02-01T09:50:33;3.00;99.90
15274;DHT22;7738;49.532;11.156;2023-02-01T09:53:09;3.00;99.90
15274;DHT22;7738;49.532;11.156;2023-02-01T09:55:42;3.00;99.90
15274;DHT22;7738;49.532;11.156;2023-02-01T09:58:20;3.10;99.90
15274;DHT22;7738;49.532;11.156;2023-02-01T10:00:53;3.20;99.90
15274;DHT22;7738;49.532;11.156;2023-02-01T10:03:27;3.30;99.90
15274;DHT22;7738;49.532;11.156;2023-02-01T10:06:13;3.40;99.90
15274;DHT22;7738;49.532;11.156;2023-02-01T10:09:07;3.40;99.90
15274;DHT22;7738;49.532;11.156;2023-02-01T10:11:51;4.20;99.90
15274;DHT22;7738;49.532;11.156;2023-02-01T10:14:40;3.40;99.90
15274;DHT22;7738;49.532;11.156;2023-02-01T10:17:20;3.50;99.90
15274;DHT22;7738;49.532;11.156;2023-02-01T10:20:00;3.50;99.90
15274;DHT22;7738;49.532;11.156;2023-02-01T10:22:39;3.30;99.90
15274;DHT22;7738;49.532;11.156;2023-02-01T10:25:36;3.40;99.90
15274;DHT22;7738;49.532;11.156;2023-02-01T10:28:14;3.40;99.90
15274;DHT22;7738;49.532;11.156;2023-02-01T10:30:48;3.40;99.90
15274;DHT22;7738;49.532;11.156;2023-02-01T10:33:23;3.40;99.90
15274;DHT22;7738;49.532;11.156;2023-02-01T10:35:58;3.30;99.90
15274;DHT22;7738;49.532;11.156;2023-02-01T10:38:32;3.10;99.90
15274;DHT22;7738;49.532;11.156;2023-02-01T10:41:07;3.10;99.90
15274;DHT22;7738;49.532;11.156;2023-02-01T10:43:41;2.80;99.90
15274;DHT22;7738;49.532;11.156;2023-02-01T10:46:14;2.70;99.90
15274;DHT22;7738;49.532;11.156;2023-02-01T10:48:44;2.70;99.90
15274;DHT22;7738;49.532;11.156;2023-02-01T10:51:19;0.80;99.90
15274;DHT22;7738;49.532;11.156;2023-02-01T10:53:55;2.40;99.90
15274;DHT22;7738;49.532;11.156;2023-02-01T10:56:27;2.40;99.90
15274;DHT22;7738;49.532;11.156;2023-02-01T10:59:03;2.50;99.90
15274;DHT22;7738;49.532;11.156;2023-02-01T11:01:39;2.30;99.90
15274;DHT22;7738;49.532;11.156;2023-02-01T11:04:10;2.60;99.90
15274;DHT22;7738;49.532;11.156;2023-02-01T11:06:43;2.60;99.90
15274;DHT22;7738;49.532;11.156;2023-02-01T11:09:19;2.50;99.90
15274;DHT22;7738;49.532;11.156;2023-02-01T11:11:56;2.70;99.90
15274;DHT22;7738;49.532;11.156;2023-02-01T11:14:34;2.60;99.90
15274;DHT22;7738;49.532;11.156;2023-02-01T11:17:21;2.60;99.90
15274;DHT22;7738;49.532;11.156;2023-02-01T11:19:59;2.70;99.90
15274;DHT22;7738;49.532;11.156;2023-02-01T11:25:01;2.70;99.90
15274;DHT22;7738;49.532;11.156;2023-02-01T11:27:38;2.70;99.90
15274;DHT22;7738;49.532;11.156;2023-02-01T11:30:29;2.60;99.90
15274;DHT22;7738;49.532;11.156;2023-02-01T11:33:04;2.40;99.90
15274;DHT22;7738;49.532;11.156;2023-02-01T11:35:37;2.40;99.90
15274;DHT22;7738;49.532;11.156;2023-02-01T11:38:18;2.90;99.90
15274;DHT22;7738;49.532;11.156;2023-02-01T11:40:49;2.80;99.90
15274;DHT22;7738;49.532;11.156;2023-02-01T11:43:23;2.80;99.90
15274;DHT22;7738;49.532;11.156;2023-02-01T11:45:56;2.60;99.90
15274;DHT22;7738;49.532;11.156;2023-02-01T11:48:31;2.80;99.90
15274;DHT22;7738;49.532;11.156;2023-02-01T11:53:45;3.00;99.90
15274;DHT22;7738;49.532;11.156;2023-02-01T12:01:55;3.20;99.90
15274;DHT22;7738;49.532;11.156;2023-02-01T12:05:02;3.20;99.90
15274;DHT22;7738;49.532;11.156;2023-02-01T12:12:57;3.30;99.90
15274;DHT22;7738;49.532;11.156;2023-02-01T12:15:44;3.30;99.90
15274;DHT22;7738;49.532;11.156;2023-02-01T12:18:45;3.30;99.90
15274;DHT22;7738;49.532;11.156;2023-02-01T12:21:33;3.20;99.90
15274;DHT22;7738;49.532;11.156;2023-02-01T12:24:25;3.10;99.90
15274;DHT22;7738;49.532;11.156;2023-02-01T12:29:47;3.20;99.90
15274;DHT22;7738;49.532;11.156;2023-02-01T12:35:13;3.20;99.90
15274;DHT22;7738;49.532;11.156;2023-02-01T12:40:43;3.00;99.90
15274;DHT22;7738;49.532;11.156;2023-02-01T12:43:19;3.00;99.90
15274;DHT22;7738;49.532;11.156;2023-02-01T12:51:02;2.80;99.90
15274;DHT22;7738;49.532;11.156;2023-02-01T12:53:44;2.80;99.90
15274;DHT22;7738;49.532;11.156;2023-02-01T12:56:21;2.80;99.90
15274;DHT22;7738;49.532;11.156;2023-02-01T12:58:53;2.60;99.90
15274;DHT22;7738;49.532;11.156;2023-02-01T13:19:29;2.00;99.90
15274;DHT22;7738;49.532;11.156;2023-02-01T13:22:03;2.40;99.90
15274;DHT22;7738;49.532;11.156;2023-02-01T13:29:49;2.60;99.90
15274;DHT22;7738;49.532;11.156;2023-02-01T13:40:40;2.80;99.90
15274;DHT22;7738;49.532;11.156;2023-02-01T13:48:24;2.80;99.90
15274;DHT22;7738;49.532;11.156;2023-02-01T13:50:58;2.80;99.90
15274;DHT22;7738;49.532;11.156;2023-02-01T13:56:06;2.80;99.90
15274;DHT22;7738;49.532;11.156;2023-02-01T14:03:58;3.00;99.90
15274;DHT22;7738;49.532;11.156;2023-02-01T14:06:46;2.90;99.90
15274;DHT22;7738;49.532;11.156;2023-02-01T14:14:51;3.00;99.90
15274;DHT22;7738;49.532;11.156;2023-02-01T14:17:41;3.00;99.90
15274;DHT22;7738;49.532;11.156;2023-02-01T14:23:24;3.10;99.90
15274;DHT22;7738;49.532;11.156;2023-02-01T14:26:16;3.00;99.90
15274;DHT22;7738;49.532;11.156;2023-02-01T14:28:57;3.10;99.90
15274;DHT22;7738;49.532;11.156;2023-02-01T14:34:18;3.10;99.90
15274;DHT22;7738;49.532;11.156;2023-02-01T14:36:53;3.20;99.90
15274;DHT22;7738;49.532;11.156;2023-02-01T14:39:28;3.00;99.90
15274;DHT22;7738;49.532;11.156;2023-02-01T14:42:01;3.10;99.90
15274;DHT22;7738;49.532;11.156;2023-02-01T14:44:35;3.20;99.90
15274;DHT22;7738;49.532;11.156;2023-02-01T14:47:32;3.10;99.90
15274;DHT22;7738;49.532;11.156;2023-02-01T14:53:16;3.10;99.90
15274;DHT22;7738;49.532;11.156;2023-02-01T14:55:49;2.80;99.90
15274;DHT22;7738;49.532;11.156;2023-02-01T14:58:29;3.30;99.90
15274;DHT22;7738;49.532;11.156;2023-02-01T15:01:04;3.10;99.90
15274;DHT22;7738;49.532;11.156;2023-02-01T15:03:47;3.20;99.90
15274;DHT22;7738;49.532;11.156;2023-02-01T15:06:28;4.60;99.90
15274;DHT22;7738;49.532;11.156;2023-02-01T15:09:02;3.30;99.90
15274;DHT22;7738;49.532;11.156;2023-02-01T15:11:33;3.50;99.90
15274;DHT22;7738;49.532;11.156;2023-02-01T15:14:22;3.30;99.90
15274;DHT22;7738;49.532;11.156;2023-02-01T15:16:53;3.30;99.90
15274;DHT22;7738;49.532;11.156;2023-02-01T15:19:27;3.20;99.90
15274;DHT22;7738;49.532;11.156;2023-02-01T15:21:59;3.10;99.90
15274;DHT22;7738;49.532;11.156;2023-02-01T15:24:30;3.00;99.90
15274;DHT22;7738;49.532;11.156;2023-02-01T15:27:05;3.10;99.90
15274;DHT22;7738;49.532;11.156;2023-02-01T15:32:05;3.00;99.90
15274;DHT22;7738;49.532;11.156;2023-02-01T15:34:48;3.20;99.90
15274;DHT22;7738;49.532;11.156;2023-02-01T15:37:21;3.00;99.90
15274;DHT22;7738;49.532;11.156;2023-02-01T15:40:05;3.30;99.90
15274;DHT22;7738;49.532;11.156;2023-02-01T15:42:37;3.10;99.90
15274;DHT22;7738;49.532;11.156;2023-02-01T15:45:16;3.10;99.90
15274;DHT22;7738;49.532;11.156;2023-02-01T15:50:21;3.20;99.90
15274;DHT22;7738;49.532;11.156;2023-02-01T15:52:53;3.20;99.90
15274;DHT22;7738;49.532;11.156;2023-02-01T15:55:33;3.40;99.90
15274;DHT22;7738;49.532;11.156;2023-02-01T15:58:13;3.20;99.90
15274;DHT22;7738;49.532;11.156;2023-02-01T16:00:46;3.00;99.90
15274;DHT22;7738;49.532;11.156;2023-02-01T16:03:33;3.20;99.90
15274;DHT22;7738;49.532;11.156;2023-02-01T16:13:55;3.50;99.90
15274;DHT22;7738;49.532;11.156;2023-02-01T16:18:55;3.60;99.90
15274;DHT22;7738;49.532;11.156;2023-02-01T16:36:39;3.40;99.90
15274;DHT22;7738;49.532;11.156;2023-02-01T16:41:41;3.40;99.90
15274;DHT22;7738;49.532;11.156;2023-02-01T16:46:44;3.40;99.90
15274;DHT22;7738;49.532;11.156;2023-02-01T16:49:18;3.30;99.90
15274;DHT22;7738;49.532;11.156;2023-02-01T16:51:53;3.50;99.90
15274;DHT22;7738;49.532;11.156;2023-02-01T16:56:55;3.40;99.90
15274;DHT22;7738;49.532;11.156;2023-02-01T16:59:25;3.10;99.90
15274;DHT22;7738;49.532;11.156;2023-02-01T17:01:55;3.80;99.90
15274;DHT22;7738;49.532;11.156;2023-02-01T17:07:00;3.30;99.90
15274;DHT22;7738;49.532;11.156;2023-02-01T17:09:35;3.40;99.90
15274;DHT22;7738;49.532;11.156;2023-02-01T17:12:09;3.40;99.90
15274;DHT22;7738;49.532;11.156;2023-02-01T17:22:32;3.50;99.90
15274;DHT22;7738;49.532;11.156;2023-02-01T17:25:02;3.60;99.90
15274;DHT22;7738;49.532;11.156;2023-02-01T17:32:36;3.70;99.90
15274;DHT22;7738;49.532;11.156;2023-02-01T17:35:15;3.50;99.90
15274;DHT22;7738;49.532;11.156;2023-02-01T17:37:48;3.50;99.90
15274;DHT22;7738;49.532;11.156;2023-02-01T17:45:33;3.40;99.90
15274;DHT22;7738;49.532;11.156;2023-02-01T17:48:07;4.50;99.90
15274;DHT22;7738;49.532;11.156;2023-02-01T17:50:38;3.50;99.90
15274;DHT22;7738;49.532;11.156;2023-02-01T17:53:11;3.50;99.90
15274;DHT22;7738;49.532;11.156;2023-02-01T17:55:44;3.60;99.90
15274;DHT22;7738;49.532;11.156;2023-02-01T18:00:47;3.60;99.90
15274;DHT22;7738;49.532;11.156;2023-02-01T18:05:53;3.60;99.90
15274;DHT22;7738;49.532;11.156;2023-02-01T18:08:28;3.50;99.90
15274;DHT22;7738;49.532;11.156;2023-02-01T18:11:00;3.60;99.90
15274;DHT22;7738;49.532;11.156;2023-02-01T18:16:01;3.60;99.90
15274;DHT22;7738;49.532;11.156;2023-02-01T18:23:38;3.70;99.90
15274;DHT22;7738;49.532;11.156;2023-02-01T18:26:09;3.70;99.90
15274;DHT22;7738;49.532;11.156;2023-02-01T18:28:40;3.60;99.90
15274;DHT22;7738;49.532;11.156;2023-02-01T18:31:20;3.60;99.90
15274;DHT22;7738;49.532;11.156;2023-02-01T18:33:52;3.60;99.90
15274;DHT22;7738;49.532;11.156;2023-02-01T18:38:55;3.80;99.90
15274;DHT22;7738;49.532;11.156;2023-02-01T18:51:27;3.70;99.90
15274;DHT22;7738;49.532;11.156;2023-02-01T18:53:59;3.80;99.90
15274;DHT22;7738;49.532;11.156;2023-02-01T18:59:00;3.80;99.90
15274;DHT22;7738;49.532;11.156;2023-02-01T19:16:49;4.00;99.90
15274;DHT22;7738;49.532;11.156;2023-02-01T19:39:31;3.70;99.90
15274;DHT22;7738;49.532;11.156;2023-02-01T19:42:03;3.80;99.90
15274;DHT22;7738;49.532;11.156;2023-02-01T20:55:00;3.70;99.90
15274;DHT22;7738;49.532;11.156;2023-02-01T21:05:05;3.50;99.90
15274;DHT22;7738;49.532;11.156;2023-02-01T21:20:11;4.10;99.90
15274;DHT22;7738;49.532;11.156;2023-02-01T21:25:14;3.30;99.90
15274;DHT22;7738;49.532;11.156;2023-02-01T21:40:19;2.90;99.90
15274;DHT22;7738;49.532;11.156;2023-02-01T22:23:01;2.90;99.90
15274;DHT22;7738;49.532;11.156;2023-02-01T22:25:35;2.80;99.90
15274;DHT22;7738;49.532;11.156;2023-02-01T23:11:21;3.50;99.90
15274;DHT22;7738;49.532;11.156;2023-02-01T23:26:29;3.80;99.90
15274;DHT22;7738;49.532;11.156;2023-02-01T23:29:00;3.70;99.90
15274;DHT22;7738;49.532;11.156;2023-02-01T23:31:32;3.70;99.90
15274;DHT22;7738;49.532;11.156;2023-02-01T23:41:37;3.80;99.90
15274;DHT22;7738;49.532;11.156;2023-02-01T23:46:36;3.80;99.90
15274;DHT22;7738;49.532;11.156;2023-02-01T23:54:11;3.80;99.90
15274;DHT22;7738;49.532;11.156;2023-02-01T23:56:44;3.80;99.90
15274;DHT22;7738;49.532;11.156;2023-02-01T23:59:20;3.90;99.90
